Time;durP1;ratioP1;P1;durP2;ratioP2;P2;SDS_P1;SDS_P2;PMS_P1;PMS_P2;Temp;Humidity;BMP_temperature;BMP_pressure;BME280_temperature;BME280_humidity;BME280_pressure;Samples;Min_cycle;Max_cycle;Signal;HPM_P1;HPM_P2
2021/04/04 00:02:20;;;;;;;5.30;3.30;;;5.10;94.50;;;;;;5032243;28;20460;-47
2021/04/04 00:04:46;;;;;;;4.37;2.90;;;5.10;94.40;;;;;;5022451;28;20448;-48
2021/04/04 00:07:13;;;;;;;8.43;3.57;;;5.30;94.20;;;;;;5013069;28;20805;-48
2021/04/04 00:09:40;;;;;;;6.67;3.73;;;5.40;94.20;;;;;;5012632;28;20486;-47
2021/04/04 00:12:08;;;;;;;6.60;3.60;;;5.30;94.30;;;;;;5026428;28;20448;-48
2021/04/04 00:14:35;;;;;;;5.47;4.00;;;5.20;94.30;;;;;;5031896;28;20476;-48
2021/04/04 00:17:02;;;;;;;7.43;3.80;;;5.20;94.30;;;;;;5032017;28;20452;-48
2021/04/04 00:19:29;;;;;;;5.90;2.80;;;5.30;94.20;;;;;;5032379;28;20447;-47
2021/04/04 00:21:56;;;;;;;11.33;3.77;;;5.30;94.40;;;;;;5031186;28;20456;-47
2021/04/04 00:24:24;;;;;;;5.87;3.43;;;5.20;94.80;;;;;;5031091;28;20591;-47
2021/04/04 00:26:50;;;;;;;9.23;3.67;;;5.30;94.50;;;;;;5031947;28;20453;-48
2021/04/04 00:29:17;;;;;;;5.70;3.70;;;5.10;94.10;;;;;;5026968;28;20990;-47
2021/04/04 00:31:43;;;;;;;6.47;4.30;;;5.00;94.10;;;;;;5027828;28;20469;-47
2021/04/04 00:34:10;;;;;;;4.57;3.20;;;5.10;94.20;;;;;;5031782;28;20472;-48
2021/04/04 00:36:36;;;;;;;6.60;4.10;;;4.90;94.40;;;;;;5031735;28;20463;-47
2021/04/04 00:39:06;;;;;;;7.93;3.77;;;4.80;95.00;;;;;;5026505;28;20962;-47
2021/04/04 00:41:34;;;;;;;5.73;3.63;;;4.60;95.00;;;;;;5019869;28;20451;-47
2021/04/04 00:44:01;;;;;;;6.97;4.27;;;4.50;95.70;;;;;;5032370;28;20515;-48
2021/04/04 00:46:27;;;;;;;5.30;3.70;;;4.70;95.90;;;;;;5031697;28;20441;-48
2021/04/04 00:48:54;;;;;;;4.03;3.20;;;4.40;95.70;;;;;;5031831;28;20452;-48
2021/04/04 00:51:21;;;;;;;6.67;4.00;;;4.20;96.50;;;;;;5032009;28;20448;-48
2021/04/04 00:53:48;;;;;;;6.47;3.53;;;4.20;96.40;;;;;;5030338;28;20469;-47
2021/04/04 00:56:16;;;;;;;7.50;4.00;;;3.90;96.40;;;;;;5034907;28;20466;-47
2021/04/04 00:58:44;;;;;;;5.70;3.40;;;3.80;97.00;;;;;;5029571;28;20450;-48
2021/04/04 01:01:11;;;;;;;6.80;3.90;;;3.70;97.40;;;;;;5030716;28;20464;-47
2021/04/04 01:03:38;;;;;;;7.20;4.53;;;3.60;98.00;;;;;;5033572;28;20489;-48
2021/04/04 01:06:07;;;;;;;5.63;3.83;;;3.60;97.80;;;;;;5036797;28;20490;-50
2021/04/04 01:08:34;;;;;;;7.07;3.77;;;3.50;98.40;;;;;;5037968;28;20946;-47
2021/04/04 01:11:01;;;;;;;7.00;3.80;;;3.50;98.20;;;;;;5036171;28;20483;-47
2021/04/04 01:13:39;;;;;;;8.47;4.13;;;3.50;98.30;;;;;;5037782;28;20484;-47
2021/04/04 01:16:10;;;;;;;9.60;4.07;;;3.50;98.40;;;;;;5039417;28;20507;-47
2021/04/04 01:18:40;;;;;;;6.30;3.70;;;3.60;98.30;;;;;;5039500;28;20460;-47
2021/04/04 01:21:13;;;;;;;7.43;3.80;;;3.70;98.70;;;;;;5037142;28;20440;-47
2021/04/04 01:24:04;;;;;;;8.77;4.60;;;3.70;98.30;;;;;;5036169;28;20525;-47
2021/04/04 01:26:41;;;;;;;5.80;3.30;;;3.70;98.80;;;;;;5039702;28;20450;-47
2021/04/04 01:29:10;;;;;;;10.90;4.53;;;3.70;98.40;;;;;;5039763;28;20481;-47
2021/04/04 01:31:37;;;;;;;8.17;3.97;;;3.80;98.10;;;;;;5035687;28;20449;-47
2021/04/04 01:34:05;;;;;;;8.87;4.90;;;4.00;97.70;;;;;;5042393;28;20467;-47
2021/04/04 01:36:36;;;;;;;11.50;5.40;;;4.00;97.40;;;;;;5036248;28;20825;-46
2021/04/04 01:39:08;;;;;;;7.50;4.57;;;3.90;97.60;;;;;;5042119;28;20531;-47
2021/04/04 01:41:38;;;;;;;7.50;4.20;;;4.00;97.50;;;;;;5042365;28;20443;-48
2021/04/04 01:44:07;;;;;;;5.10;3.70;;;3.90;97.60;;;;;;5042358;28;20558;-47
2021/04/04 01:46:38;;;;;;;7.23;3.90;;;3.90;97.50;;;;;;5036395;28;20959;-47
2021/04/04 01:49:05;;;;;;;6.70;3.90;;;4.00;97.50;;;;;;5035990;28;21189;-47
2021/04/04 01:51:33;;;;;;;7.70;4.33;;;4.00;97.60;;;;;;5035665;28;20825;-47
2021/04/04 01:54:03;;;;;;;7.50;3.97;;;4.00;97.50;;;;;;5036160;28;20465;-48
2021/04/04 01:56:31;;;;;;;5.43;4.17;;;4.00;97.40;;;;;;5036859;28;21015;-47
2021/04/04 01:58:59;;;;;;;8.80;4.73;;;4.00;98.00;;;;;;5042582;28;20456;-49
2021/04/04 02:01:28;;;;;;;8.07;4.50;;;4.00;98.30;;;;;;5042276;28;20884;-47
2021/04/04 02:03:59;;;;;;;6.63;4.33;;;3.80;98.60;;;;;;5042128;28;21010;-47
2021/04/04 02:06:26;;;;;;;6.30;4.37;;;3.60;98.70;;;;;;5037943;28;20874;-47
2021/04/04 02:08:55;;;;;;;8.40;4.80;;;3.50;99.00;;;;;;5023321;28;20531;-47
2021/04/04 02:11:25;;;;;;;9.83;4.60;;;3.50;98.90;;;;;;5031314;28;20823;-47
2021/04/04 02:13:53;;;;;;;9.40;4.80;;;3.50;98.90;;;;;;5037032;28;21036;-47
2021/04/04 02:16:22;;;;;;;7.93;4.20;;;3.30;99.70;;;;;;5036154;28;20518;-47
2021/04/04 02:18:50;;;;;;;7.00;4.47;;;3.00;99.90;;;;;;5041650;28;20442;-47
2021/04/04 02:21:19;;;;;;;8.57;4.93;;;3.10;99.90;;;;;;5042970;28;20447;-47
2021/04/04 02:23:46;;;;;;;12.07;4.20;;;3.20;99.90;;;;;;5044409;28;20569;-47
2021/04/04 02:26:13;;;;;;;6.80;4.27;;;3.20;99.90;;;;;;5040780;28;20455;-47
2021/04/04 02:28:40;;;;;;;6.30;4.17;;;3.30;99.90;;;;;;5042788;28;20451;-48
2021/04/04 02:31:10;;;;;;;7.53;4.40;;;3.50;99.90;;;;;;5048116;28;20510;-47
2021/04/04 02:33:42;;;;;;;6.40;4.20;;;3.60;99.90;;;;;;5049777;28;20466;-48
2021/04/04 02:36:14;;;;;;;8.27;4.17;;;3.60;99.80;;;;;;5040175;28;20455;-47
2021/04/04 02:38:44;;;;;;;6.23;3.93;;;3.50;99.90;;;;;;5040812;28;20441;-47
2021/04/04 02:41:12;;;;;;;5.90;4.30;;;3.60;99.90;;;;;;5038935;28;20443;-47
2021/04/04 02:43:41;;;;;;;7.70;4.53;;;3.50;99.90;;;;;;5042552;28;20475;-47
2021/04/04 02:46:12;;;;;;;7.40;4.07;;;3.50;99.90;;;;;;5036862;28;20448;-47
2021/04/04 02:48:43;;;;;;;5.40;3.87;;;3.40;99.90;;;;;;5042540;28;20494;-47
2021/04/04 02:51:14;;;;;;;8.90;4.43;;;3.50;99.90;;;;;;5039855;28;21052;-47
2021/04/04 02:53:46;;;;;;;6.13;3.70;;;3.60;99.90;;;;;;5036746;28;20527;-48
2021/04/04 02:56:15;;;;;;;5.33;3.63;;;3.60;99.90;;;;;;5036804;28;20498;-47
2021/04/04 02:58:45;;;;;;;7.53;4.40;;;3.60;99.90;;;;;;5035123;28;20541;-47
2021/04/04 03:01:15;;;;;;;8.97;4.80;;;3.60;99.90;;;;;;5036752;28;20539;-47
2021/04/04 03:03:46;;;;;;;6.83;3.97;;;3.60;99.90;;;;;;5036180;28;20501;-47
2021/04/04 03:06:14;;;;;;;8.70;4.30;;;3.60;99.90;;;;;;5036354;28;20452;-48
2021/04/04 03:08:46;;;;;;;5.63;3.70;;;3.60;99.90;;;;;;5036798;28;20456;-48
2021/04/04 03:11:15;;;;;;;6.43;3.80;;;3.30;99.90;;;;;;5036653;28;20545;-48
2021/04/04 03:13:46;;;;;;;8.47;4.80;;;3.20;99.90;;;;;;5036600;28;20510;-48
2021/04/04 03:16:13;;;;;;;7.30;3.80;;;3.30;99.90;;;;;;5034673;28;20534;-48
2021/04/04 03:18:42;;;;;;;8.30;4.77;;;3.30;99.90;;;;;;5036379;28;20456;-47
2021/04/04 03:21:10;;;;;;;7.53;4.40;;;3.40;99.90;;;;;;5036774;28;20452;-48
2021/04/04 03:23:38;;;;;;;7.80;4.03;;;3.20;99.90;;;;;;5034414;28;20509;-48
2021/04/04 03:26:06;;;;;;;7.83;4.20;;;3.20;99.90;;;;;;5033169;28;20877;-47
2021/04/04 03:28:34;;;;;;;7.27;4.60;;;3.30;99.90;;;;;;5033314;28;20455;-48
2021/04/04 03:31:01;;;;;;;7.50;4.30;;;3.40;99.90;;;;;;5033221;28;20487;-47
2021/04/04 03:33:29;;;;;;;6.00;3.90;;;3.40;99.90;;;;;;5032218;28;20468;-48
2021/04/04 03:35:57;;;;;;;11.30;4.43;;;3.30;99.90;;;;;;5033075;28;20807;-47
2021/04/04 03:38:25;;;;;;;10.27;5.13;;;3.10;99.90;;;;;;5033293;28;20450;-47
2021/04/04 03:40:54;;;;;;;8.00;4.90;;;2.90;99.90;;;;;;5033327;28;20450;-48
2021/04/04 03:43:26;;;;;;;7.60;4.90;;;2.80;99.90;;;;;;5033109;28;20478;-47
2021/04/04 03:45:55;;;;;;;9.33;4.97;;;2.90;99.90;;;;;;5032933;28;20442;-47
2021/04/04 03:48:22;;;;;;;9.60;5.00;;;2.80;99.90;;;;;;5030453;28;20455;-48
2021/04/04 03:50:50;;;;;;;7.20;4.23;;;2.90;99.90;;;;;;5013269;28;20856;-47
2021/04/04 03:53:20;;;;;;;7.57;5.07;;;3.00;99.90;;;;;;5013118;28;20528;-48
2021/04/04 03:55:50;;;;;;;7.73;4.80;;;2.80;99.90;;;;;;5012932;28;20547;-47
2021/04/04 03:58:19;;;;;;;9.53;4.70;;;2.70;99.90;;;;;;5012967;28;20464;-47
2021/04/04 04:00:47;;;;;;;9.20;4.80;;;2.60;99.90;;;;;;5014154;28;20443;-46
2021/04/04 04:03:16;;;;;;;10.13;4.80;;;2.40;99.90;;;;;;5021691;28;20483;-47
2021/04/04 04:05:43;;;;;;;7.17;4.80;;;2.50;99.90;;;;;;5030843;28;20455;-48
2021/04/04 04:08:10;;;;;;;9.63;4.90;;;2.60;99.90;;;;;;5020290;28;20835;-47
2021/04/04 04:10:39;;;;;;;9.10;4.73;;;2.60;99.90;;;;;;5012632;28;20499;-47
2021/04/04 04:13:08;;;;;;;9.23;5.00;;;2.80;99.90;;;;;;5012853;28;20509;-47
2021/04/04 04:15:35;;;;;;;8.63;4.73;;;2.80;99.90;;;;;;5012687;28;20869;-47
2021/04/04 04:18:06;;;;;;;9.37;4.70;;;2.80;99.90;;;;;;5012916;28;20458;-48
2021/04/04 04:20:33;;;;;;;7.00;4.80;;;2.80;99.90;;;;;;5030505;28;20451;-47
2021/04/04 04:23:03;;;;;;;8.77;4.30;;;2.80;99.90;;;;;;5031646;28;20470;-46
2021/04/04 04:25:30;;;;;;;8.53;4.73;;;2.70;99.90;;;;;;5032060;28;20446;-46
2021/04/04 04:27:58;;;;;;;9.27;4.70;;;2.70;99.90;;;;;;5032158;28;20498;-47
2021/04/04 04:30:25;;;;;;;8.10;4.83;;;2.70;99.90;;;;;;5031927;28;20484;-48
2021/04/04 04:32:57;;;;;;;10.10;4.97;;;2.40;99.90;;;;;;5032224;28;20495;-47
2021/04/04 04:35:26;;;;;;;12.57;6.17;;;2.60;99.90;;;;;;5031465;28;20880;-47
2021/04/04 04:37:54;;;;;;;9.70;5.30;;;2.60;99.90;;;;;;5032010;28;21006;-47
2021/04/04 04:40:22;;;;;;;9.90;5.17;;;2.50;99.90;;;;;;5013190;28;21128;-48
2021/04/04 04:42:50;;;;;;;9.10;5.53;;;2.60;99.90;;;;;;5012135;28;21173;-47
2021/04/04 04:45:24;;;;;;;11.43;5.40;;;2.50;99.90;;;;;;5012091;28;20517;-47
2021/04/04 04:47:52;;;;;;;7.17;5.00;;;2.40;99.90;;;;;;5012180;28;20449;-48
2021/04/04 04:50:20;;;;;;;9.17;5.43;;;2.50;99.90;;;;;;5011898;28;20491;-47
2021/04/04 04:52:47;;;;;;;9.87;5.17;;;2.50;99.90;;;;;;5011954;28;20472;-48
2021/04/04 04:55:14;;;;;;;10.97;6.23;;;2.50;99.90;;;;;;5015828;28;20461;-47
2021/04/04 04:57:40;;;;;;;10.23;5.90;;;2.50;99.90;;;;;;5031795;28;20444;-48
2021/04/04 05:00:09;;;;;;;11.10;5.60;;;2.50;99.90;;;;;;5031748;28;20501;-47
2021/04/04 05:02:36;;;;;;;8.87;5.37;;;2.50;99.90;;;;;;5031463;28;20499;-44
2021/04/04 05:05:03;;;;;;;10.83;5.30;;;2.30;99.90;;;;;;5031395;28;20444;-45
2021/04/04 05:07:31;;;;;;;9.33;5.47;;;2.10;99.90;;;;;;5031750;28;20458;-46
2021/04/04 05:10:02;;;;;;;13.67;6.10;;;2.20;99.90;;;;;;5031557;28;20904;-45
2021/04/04 05:12:30;;;;;;;10.63;6.23;;;2.30;99.90;;;;;;5030882;28;20955;-45
2021/04/04 05:17:25;;;;;;;9.47;5.73;;;2.50;99.90;;;;;;5032392;28;20477;-49
2021/04/04 05:19:51;;;;;;;11.20;6.37;;;2.40;99.90;;;;;;5031058;28;20452;-48
2021/04/04 05:22:18;;;;;;;11.60;6.07;;;2.30;99.90;;;;;;5031210;28;20447;-48
2021/04/04 05:24:48;;;;;;;12.60;6.70;;;2.50;99.90;;;;;;5031094;28;20497;-48
2021/04/04 05:27:15;;;;;;;8.60;5.30;;;2.60;99.90;;;;;;5036573;28;20498;-48
2021/04/04 05:29:42;;;;;;;10.80;5.57;;;2.70;99.90;;;;;;5030993;28;20488;-49
2021/04/04 05:32:11;;;;;;;12.30;6.07;;;2.70;99.90;;;;;;5031137;28;20447;-49
2021/04/04 05:34:39;;;;;;;9.33;5.43;;;2.80;99.90;;;;;;5041643;28;20862;-49
2021/04/04 05:37:08;;;;;;;14.10;6.67;;;2.90;99.90;;;;;;5050931;28;20475;-49
2021/04/04 05:39:36;;;;;;;20.67;10.37;;;2.90;99.90;;;;;;5050474;28;20455;-48
2021/04/04 05:42:05;;;;;;;20.07;10.50;;;3.00;99.90;;;;;;5051199;28;20863;-48
2021/04/04 05:44:40;;;;;;;19.27;10.00;;;3.10;99.90;;;;;;5046243;28;20839;-49
2021/04/04 05:47:15;;;;;;;19.63;8.90;;;3.20;99.90;;;;;;5038069;28;20465;-49
2021/04/04 05:49:51;;;;;;;14.67;7.47;;;3.20;99.90;;;;;;5050626;28;20510;-49
2021/04/04 05:52:30;;;;;;;17.93;7.10;;;3.50;99.90;;;;;;5050638;28;20450;-49
2021/04/04 05:55:09;;;;;;;10.47;6.87;;;4.30;99.90;;;;;;5050224;28;20453;-48
2021/04/04 05:57:42;;;;;;;9.90;6.17;;;5.40;99.90;;;;;;5049609;28;20529;-49
2021/04/04 06:00:11;;;;;;;13.00;5.90;;;6.60;99.90;;;;;;5044951;28;20428;-49
2021/04/04 06:03:09;;;;;;;9.27;5.43;;;7.70;99.80;;;;;;5041716;28;20500;-49
2021/04/04 06:05:51;;;;;;;11.00;6.60;;;8.50;97.10;;;;;;5017637;28;20564;-49
2021/04/04 06:08:38;;;;;;;8.00;5.77;;;9.20;96.50;;;;;;5041920;28;20454;-49
2021/04/04 06:11:12;;;;;;;7.87;5.90;;;9.90;95.30;;;;;;5050596;28;20483;-49
2021/04/04 06:13:51;;;;;;;12.83;6.20;;;10.40;93.60;;;;;;5050652;28;20652;-49
2021/04/04 06:16:27;;;;;;;11.80;6.20;;;10.80;92.50;;;;;;5031680;28;20482;-49
2021/04/04 06:19:05;;;;;;;10.03;6.57;;;10.90;91.70;;;;;;5030489;28;21014;-49
2021/04/04 06:21:36;;;;;;;8.70;6.53;;;11.40;91.60;;;;;;5030807;28;20452;-49
2021/04/04 06:24:11;;;;;;;9.97;5.97;;;11.80;92.00;;;;;;5030572;28;20521;-50
2021/04/04 06:26:42;;;;;;;8.83;5.70;;;12.10;90.90;;;;;;5047590;28;20467;-49
2021/04/04 06:29:15;;;;;;;7.83;5.30;;;12.00;90.40;;;;;;5050421;28;20444;-50
2021/04/04 06:31:59;;;;;;;12.83;6.10;;;12.50;90.10;;;;;;5050639;28;20450;-49
2021/04/04 06:34:33;;;;;;;7.43;5.30;;;12.90;89.90;;;;;;5050549;28;20526;-50
2021/04/04 06:37:18;;;;;;;8.50;5.70;;;13.40;87.90;;;;;;5050239;28;20848;-49
2021/04/04 06:40:03;;;;;;;7.40;5.30;;;13.80;87.40;;;;;;5049268;28;20513;-50
2021/04/04 06:42:52;;;;;;;5.57;4.50;;;14.00;84.90;;;;;;5050239;28;20925;-50
2021/04/04 06:45:27;;;;;;;6.33;4.93;;;14.20;84.70;;;;;;5050152;28;20467;-50
2021/04/04 06:48:06;;;;;;;6.47;4.57;;;13.90;82.10;;;;;;5050352;28;20479;-50
2021/04/04 06:50:38;;;;;;;7.17;5.10;;;13.90;80.50;;;;;;5050527;28;20494;-50
2021/04/04 06:53:18;;;;;;;5.90;4.43;;;13.40;83.60;;;;;;5050533;28;20951;-49
2021/04/04 06:55:55;;;;;;;8.23;4.97;;;13.20;83.20;;;;;;5050551;28;20467;-49
2021/04/04 06:58:33;;;;;;;9.00;4.90;;;12.80;80.30;;;;;;5035255;28;20539;-50
2021/04/04 07:01:10;;;;;;;6.03;4.90;;;13.40;84.10;;;;;;5055928;28;20451;-50
2021/04/04 07:03:46;;;;;;;6.47;4.53;;;13.80;81.50;;;;;;5057401;28;20492;-50
2021/04/04 07:06:36;;;;;;;7.33;4.97;;;13.80;80.00;;;;;;5065144;28;20463;-50
2021/04/04 07:09:11;;;;;;;8.13;5.30;;;14.50;82.20;;;;;;5065680;28;20458;-50
2021/04/04 07:11:49;;;;;;;6.43;4.83;;;14.90;79.70;;;;;;5056490;28;20493;-50
2021/04/04 07:14:49;;;;;;;7.70;5.40;;;15.00;79.40;;;;;;5042075;28;20439;-50
2021/04/04 07:17:33;;;;;;;7.40;5.30;;;14.50;76.30;;;;;;5046636;28;20479;-50
2021/04/04 07:20:26;;;;;;;8.10;5.50;;;14.60;75.00;;;;;;5034186;28;20436;-50
2021/04/04 07:23:18;;;;;;;6.47;4.90;;;15.10;74.60;;;;;;5047191;28;20454;-50
2021/04/04 07:25:49;;;;;;;6.77;5.03;;;15.10;72.90;;;;;;5053841;28;20529;-50
2021/04/04 07:28:38;;;;;;;8.23;5.17;;;14.80;77.60;;;;;;5053955;28;20452;-50
2021/04/04 07:31:09;;;;;;;6.70;4.70;;;14.60;74.70;;;;;;5037175;28;20905;-50
2021/04/04 07:33:41;;;;;;;6.63;5.10;;;14.50;73.50;;;;;;5052425;28;20464;-50
2021/04/04 07:36:17;;;;;;;8.23;4.93;;;14.50;74.10;;;;;;5052709;28;20479;-50
2021/04/04 07:38:55;;;;;;;7.00;5.13;;;14.40;76.00;;;;;;5053019;28;20531;-50
2021/04/04 07:41:30;;;;;;;7.03;5.23;;;14.30;77.00;;;;;;5052186;28;20452;-50
2021/04/04 07:44:06;;;;;;;9.77;4.90;;;13.80;82.10;;;;;;5052597;28;20930;-50
2021/04/04 07:46:44;;;;;;;6.33;4.70;;;14.50;75.90;;;;;;5051795;28;20479;-50
2021/04/04 07:49:23;;;;;;;9.80;5.07;;;14.40;74.90;;;;;;5053136;28;20455;-50
2021/04/04 07:51:54;;;;;;;9.17;5.13;;;14.70;80.90;;;;;;5065563;28;20446;-50
2021/04/04 07:54:28;;;;;;;6.97;5.37;;;14.40;76.70;;;;;;5060779;28;20531;-50
2021/04/04 07:56:58;;;;;;;6.10;4.80;;;14.70;77.90;;;;;;5052439;28;20468;-50
2021/04/04 07:59:34;;;;;;;8.10;5.60;;;14.30;77.70;;;;;;5052494;28;20452;-50
2021/04/04 08:02:11;;;;;;;6.63;4.63;;;15.10;76.90;;;;;;5052895;28;20443;-51
2021/04/04 08:04:46;;;;;;;7.30;4.67;;;14.60;73.00;;;;;;5051877;28;20497;-49
2021/04/04 08:07:19;;;;;;;6.50;4.80;;;14.70;73.00;;;;;;5052325;28;20466;-50
2021/04/04 08:09:51;;;;;;;11.00;4.50;;;14.90;75.90;;;;;;5051751;28;20487;-50
2021/04/04 08:12:36;;;;;;;7.35;5.30;;;14.80;74.80;;;;;;5044980;28;20448;-50
2021/04/04 08:15:08;;;;;;;7.73;4.90;;;15.10;78.00;;;;;;5048723;28;20244;-50
2021/04/04 08:17:35;;;;;;;7.27;4.63;;;14.60;77.60;;;;;;5031965;28;20477;-50
2021/04/04 08:20:08;;;;;;;7.07;5.20;;;15.20;72.80;;;;;;5036779;28;20456;-50
2021/04/04 08:22:41;;;;;;;5.60;4.20;;;15.20;75.30;;;;;;5045222;28;20480;-52
2021/04/04 08:25:14;;;;;;;6.57;4.67;;;15.50;73.90;;;;;;5031887;28;20445;-51
2021/04/04 08:27:49;;;;;;;5.60;4.60;;;15.70;71.00;;;;;;5038428;28;20595;-51
2021/04/04 08:30:20;;;;;;;6.40;4.80;;;16.50;68.20;;;;;;5050520;28;20483;-52
2021/04/04 08:32:51;;;;;;;5.43;4.63;;;16.80;72.70;;;;;;5042831;28;20432;-51
2021/04/04 08:35:23;;;;;;;6.63;5.07;;;16.60;70.90;;;;;;5042007;28;20988;-50
2021/04/04 08:37:55;;;;;;;6.83;4.70;;;16.00;67.80;;;;;;5051455;28;20479;-51
2021/04/04 08:40:24;;;;;;;7.50;4.80;;;16.70;66.60;;;;;;5051345;28;20448;-52
2021/04/04 08:42:52;;;;;;;7.30;4.40;;;17.40;70.10;;;;;;5051031;28;20460;-51
2021/04/04 08:45:24;;;;;;;8.70;4.53;;;16.90;70.80;;;;;;5051267;28;20530;-51
2021/04/04 08:47:53;;;;;;;6.13;4.63;;;16.90;71.90;;;;;;5051417;28;20905;-51
2021/04/04 09:17:17;;;;;;;7.70;4.60;;;16.10;70.90;;;;;;5046330;28;20443;-52
2021/04/04 09:19:46;;;;;;;6.27;4.90;;;16.70;72.20;;;;;;5050365;28;20976;-51
2021/04/04 09:22:17;;;;;;;6.20;4.80;;;17.00;66.90;;;;;;5048473;28;21161;-51
2021/04/04 09:24:48;;;;;;;6.43;4.87;;;16.50;65.40;;;;;;5038612;28;20460;-51
2021/04/04 09:27:17;;;;;;;5.53;4.43;;;16.10;73.20;;;;;;5051316;28;20486;-51
2021/04/04 09:29:47;;;;;;;8.30;4.27;;;15.50;67.20;;;;;;5060779;28;20451;-51
2021/04/04 09:32:26;;;;;;;7.27;3.60;;;16.30;66.10;;;;;;5050050;28;20489;-52
2021/04/04 09:34:54;;;;;;;6.03;4.80;;;16.60;68.90;;;;;;5050148;28;20958;-52
2021/04/04 09:37:24;;;;;;;4.50;3.90;;;17.20;67.60;;;;;;5049273;28;20478;-51
2021/04/04 09:39:52;;;;;;;8.13;4.07;;;17.00;62.60;;;;;;5045150;28;20983;-51
2021/04/04 09:42:19;;;;;;;4.60;4.07;;;16.90;70.60;;;;;;5044861;28;20457;-51
2021/04/04 09:44:46;;;;;;;5.63;4.40;;;17.10;63.40;;;;;;5046544;28;20455;-52
2021/04/04 09:47:13;;;;;;;5.97;4.23;;;17.70;61.30;;;;;;5050074;28;20495;-52
2021/04/04 09:49:43;;;;;;;6.13;4.57;;;18.10;60.20;;;;;;5049995;28;20589;-52
2021/04/04 09:52:26;;;;;;;6.27;4.40;;;16.80;60.50;;;;;;5050575;28;20505;-52
2021/04/04 09:54:58;;;;;;;6.53;4.70;;;17.50;63.40;;;;;;5048822;28;20825;-51
2021/04/04 09:57:26;;;;;;;8.43;5.23;;;16.20;64.90;;;;;;5050115;28;20448;-51
2021/04/04 09:59:53;;;;;;;8.43;4.40;;;15.20;68.90;;;;;;5049712;28;20451;-51
2021/04/04 10:02:34;;;;;;;10.27;5.53;;;14.80;66.80;;;;;;5049696;28;20953;-52
2021/04/04 10:05:03;;;;;;;18.63;12.63;;;15.30;65.60;;;;;;5049944;28;20443;-51
2021/04/04 10:07:31;;;;;;;3.37;3.07;;;15.60;73.90;;;;;;5048802;28;20474;-51
2021/04/04 10:09:58;;;;;;;4.87;3.57;;;15.30;63.40;;;;;;5049778;28;20491;-51
2021/04/04 10:12:25;;;;;;;9.57;4.57;;;15.70;59.70;;;;;;5050045;28;20455;-51
2021/04/04 10:15:06;;;;;;;7.20;4.77;;;15.50;68.60;;;;;;5050434;28;20451;-51
2021/04/04 10:17:34;;;;;;;6.93;4.27;;;15.40;67.50;;;;;;5049940;28;20447;-51
2021/04/04 10:20:04;;;;;;;8.93;4.80;;;14.90;70.50;;;;;;5049162;28;20869;-51
2021/04/04 10:22:49;;;;;;;6.20;3.80;;;15.20;63.20;;;;;;5050053;28;20451;-51
2021/04/04 10:25:17;;;;;;;7.73;4.20;;;15.50;69.00;;;;;;5047891;28;20451;-51
2021/04/04 10:27:44;;;;;;;7.03;3.73;;;15.80;68.20;;;;;;5048300;28;20456;-51
2021/04/04 10:30:12;;;;;;;5.80;3.70;;;15.00;67.50;;;;;;5048537;28;20492;-51
2021/04/04 10:32:40;;;;;;;8.20;3.40;;;14.90;65.50;;;;;;5043498;28;20814;-51
2021/04/04 10:35:10;;;;;;;7.07;3.83;;;15.90;62.50;;;;;;5050689;28;20455;-51
2021/04/04 10:37:37;;;;;;;5.00;3.33;;;15.50;63.80;;;;;;5042902;28;20458;-52
2021/04/04 10:40:07;;;;;;;5.97;3.47;;;15.60;62.10;;;;;;5045261;28;20544;-52
2021/04/04 10:42:35;;;;;;;3.87;3.47;;;15.90;65.80;;;;;;5038831;28;20521;-52
2021/04/04 10:45:11;;;;;;;4.20;3.30;;;16.20;71.10;;;;;;5048842;28;20447;-51
2021/04/04 10:47:38;;;;;;;5.67;3.53;;;14.90;64.30;;;;;;5053221;28;20447;-50
2021/04/04 10:50:09;;;;;;;5.87;3.50;;;14.80;66.80;;;;;;5057743;28;20510;-52
2021/04/04 10:52:38;;;;;;;5.10;3.27;;;14.50;69.40;;;;;;5053702;28;20452;-51
2021/04/04 10:55:06;;;;;;;6.63;3.23;;;14.50;69.90;;;;;;5053345;28;20526;-51
2021/04/04 10:57:35;;;;;;;6.63;3.07;;;13.90;66.30;;;;;;5053505;28;20462;-51
2021/04/04 11:00:03;;;;;;;4.33;3.20;;;14.10;67.30;;;;;;5053491;28;20483;-51
2021/04/04 11:02:32;;;;;;;4.40;3.00;;;14.10;73.60;;;;;;5051629;28;20463;-51
2021/04/04 11:04:59;;;;;;;5.43;3.43;;;14.30;70.50;;;;;;5033568;28;20486;-51
2021/04/04 11:07:27;;;;;;;4.60;3.00;;;14.30;74.30;;;;;;5040796;28;20478;-51
2021/04/04 11:09:53;;;;;;;7.10;3.57;;;14.00;67.00;;;;;;5053721;28;20443;-51
2021/04/04 11:12:20;;;;;;;5.43;3.20;;;13.50;68.60;;;;;;5053667;28;20447;-50
2021/04/04 11:14:51;;;;;;;3.50;2.63;;;13.30;69.80;;;;;;5053509;28;20451;-51
2021/04/04 11:17:21;;;;;;;5.00;3.83;;;13.30;66.10;;;;;;5053026;28;20475;-50
2021/04/04 11:19:50;;;;;;;3.93;2.80;;;13.70;67.80;;;;;;5053507;28;20509;-51
2021/04/04 11:22:21;;;;;;;3.53;2.20;;;13.80;66.90;;;;;;5053501;28;20456;-51
2021/04/04 11:25:02;;;;;;;4.13;2.53;;;14.00;60.10;;;;;;5053310;28;20521;-51
2021/04/04 11:27:40;;;;;;;7.17;3.30;;;14.10;62.90;;;;;;5052813;28;20456;-51
2021/04/04 11:30:14;;;;;;;3.73;2.70;;;13.30;68.60;;;;;;5053326;28;20521;-51
2021/04/04 11:32:42;;;;;;;3.87;2.57;;;12.80;68.30;;;;;;5052721;28;20455;-50
2021/04/04 11:35:10;;;;;;;4.40;2.60;;;13.10;70.40;;;;;;5052952;28;20450;-50
2021/04/04 11:37:39;;;;;;;3.87;2.70;;;13.10;73.00;;;;;;5049408;28;20466;-50
2021/04/04 11:40:18;;;;;;;3.50;2.50;;;13.50;75.90;;;;;;5035974;28;20866;-51
2021/04/04 11:42:47;;;;;;;2.40;2.13;;;13.10;66.30;;;;;;5033667;28;20483;-50
2021/04/04 11:45:32;;;;;;;4.50;2.50;;;13.50;68.50;;;;;;5040429;28;20453;-50
2021/04/04 11:48:27;;;;;;;3.23;2.20;;;13.50;65.10;;;;;;5049847;28;20961;-50
2021/04/04 11:50:54;;;;;;;2.87;2.20;;;13.30;64.20;;;;;;5053254;28;20482;-51
2021/04/04 11:53:40;;;;;;;2.80;2.20;;;13.00;65.50;;;;;;5053185;28;20448;-50
2021/04/04 11:56:08;;;;;;;3.00;2.43;;;13.10;70.30;;;;;;5052724;28;21048;-50
2021/04/04 11:58:35;;;;;;;3.40;2.17;;;13.10;68.50;;;;;;5052431;28;20497;-50
2021/04/04 12:01:01;;;;;;;3.57;2.37;;;13.10;68.70;;;;;;5053085;28;20517;-50
2021/04/04 12:03:29;;;;;;;4.13;2.23;;;12.90;63.40;;;;;;5051042;28;20819;-51
2021/04/04 12:05:55;;;;;;;4.03;2.37;;;12.90;66.30;;;;;;5035378;28;20475;-51
2021/04/04 12:08:28;;;;;;;3.60;1.90;;;13.30;64.90;;;;;;5036694;28;20447;-50
2021/04/04 12:10:55;;;;;;;3.17;2.37;;;13.30;67.30;;;;;;5052586;28;20476;-51
2021/04/04 12:13:23;;;;;;;2.43;2.10;;;12.80;67.00;;;;;;5052694;28;20447;-51
2021/04/04 12:15:58;;;;;;;3.70;2.70;;;12.90;67.00;;;;;;5052306;28;20533;-51
2021/04/04 12:18:24;;;;;;;2.97;2.40;;;13.00;71.20;;;;;;5052031;28;20451;-50
2021/04/04 12:20:51;;;;;;;5.07;2.67;;;13.10;68.70;;;;;;5041732;28;20452;-50
2021/04/04 12:23:18;;;;;;;4.97;2.67;;;13.20;66.50;;;;;;5032470;28;20459;-51
2021/04/04 12:25:44;;;;;;;3.23;2.27;;;13.30;67.20;;;;;;5032244;28;21043;-51
2021/04/04 12:28:11;;;;;;;3.90;2.40;;;13.40;71.10;;;;;;5032645;28;20949;-50
2021/04/04 12:30:40;;;;;;;4.33;2.70;;;13.30;65.50;;;;;;5046268;28;20479;-49
2021/04/04 12:33:09;;;;;;;3.30;3.00;;;13.00;68.00;;;;;;5052395;28;20957;-51
2021/04/04 12:35:37;;;;;;;5.70;2.27;;;13.20;69.00;;;;;;5052078;28;20997;-50
2021/04/04 12:38:05;;;;;;;4.27;2.73;;;13.00;67.10;;;;;;5052095;28;20452;-49
2021/04/04 12:40:31;;;;;;;9.03;2.23;;;13.00;70.30;;;;;;5033298;28;20452;-50
2021/04/04 12:42:59;;;;;;;4.80;2.53;;;12.70;67.00;;;;;;5032034;28;20444;-51
2021/04/04 12:45:30;;;;;;;2.60;2.27;;;13.00;68.90;;;;;;5031828;28;20464;-50
2021/04/04 12:48:00;;;;;;;4.47;2.23;;;13.30;70.40;;;;;;5032011;28;20532;-50
2021/04/04 12:50:27;;;;;;;4.23;2.70;;;13.60;69.40;;;;;;5043616;28;20994;-51
2021/04/04 12:52:54;;;;;;;6.07;2.70;;;13.80;71.90;;;;;;5051935;28;20448;-51
2021/04/04 12:55:25;;;;;;;3.60;2.60;;;13.70;69.80;;;;;;5051259;28;20468;-51
2021/04/04 12:57:56;;;;;;;4.20;2.50;;;13.70;73.30;;;;;;5042332;28;20482;-51
2021/04/04 13:00:24;;;;;;;4.27;2.23;;;13.40;72.30;;;;;;5031815;28;20449;-50
2021/04/04 13:03:03;;;;;;;3.50;2.47;;;13.20;67.90;;;;;;5031736;28;20456;-50
2021/04/04 13:05:35;;;;;;;5.00;3.27;;;12.90;71.50;;;;;;5031656;28;20476;-51
2021/04/04 13:08:09;;;;;;;6.30;2.50;;;12.90;69.30;;;;;;5041152;28;20448;-50
2021/04/04 13:10:36;;;;;;;5.60;3.20;;;13.10;68.80;;;;;;5051455;28;20909;-50
2021/04/04 13:13:12;;;;;;;4.07;2.70;;;12.80;72.10;;;;;;5051673;28;20443;-50
2021/04/04 13:15:38;;;;;;;5.13;2.50;;;13.20;69.70;;;;;;5051116;28;20502;-50
2021/04/04 13:18:06;;;;;;;4.77;2.50;;;12.90;65.90;;;;;;5041272;28;20463;-49
2021/04/04 13:20:36;;;;;;;5.83;2.70;;;13.10;70.80;;;;;;5031740;28;21014;-50
2021/04/04 13:23:02;;;;;;;2.90;2.00;;;13.00;69.90;;;;;;5031765;28;20444;-50
2021/04/04 13:25:29;;;;;;;2.87;2.17;;;13.40;70.50;;;;;;5031373;28;20537;-51
2021/04/04 13:27:55;;;;;;;9.27;3.13;;;13.50;70.50;;;;;;5039737;28;20513;-52
2021/04/04 13:30:29;;;;;;;5.13;2.80;;;13.50;69.80;;;;;;5051085;28;20483;-51
2021/04/04 13:32:56;;;;;;;5.20;2.50;;;13.30;69.80;;;;;;5051171;28;20871;-51
2021/04/04 13:35:29;;;;;;;4.80;2.53;;;13.30;69.40;;;;;;5051025;28;21004;-50
2021/04/04 13:37:57;;;;;;;3.03;2.70;;;13.10;70.40;;;;;;5042413;28;20896;-51
2021/04/04 13:40:25;;;;;;;3.17;2.40;;;13.30;68.00;;;;;;5048775;28;21112;-51